Terminal Aerodrome Forecast
Issued by NWS Lubbock, TX

Home | Current Version | Previous Version | Text Only | Print | Product List | Glossary On
Versions: 1 2 3 4 5 6 7 8 9 10 11 12 13 14 15 16
000
FTUS44 KLUB 180500
TAFLBB
TAF
KLBB 180523Z 1806/1906 17006KT 6SM BR SCT003
      TEMPO 1807/1809 5SM BR BKN003
     FM180900 30009KT P6SM SCT200
     FM182100 04006KT P6SM SCT100 BKN150
     FM190300 07008KT P6SM FEW010 BKN060=

USA.gov is the U.S. government's official web portal to all federal, state and local government web resources and services.